Misión y Visión

La misión es proporcionar información fiable a la navegación aérea, contribuyendo a la seguridad, regularidad y eficiencia de la Navegación Aérea Internacional

La visión es contribuir sustancialmente al desarrollo de conocimientos y a la utilización de la meteorología aeronáutica a nivel nacional e internacional, mediante la innovación y la coparticipación con sectores sociales y productivos de la sociedad.

 
  Inicio
  Metar
  Taf
  Wintemp
  SIGMET
  Avisos
  Pronósticos
  Carpeta Meteorologica
  Imágenes Satelitales
  Climatología Aeronáutica
   
  ¿Quienes Somos?
  Contacto
  Eventos



DIRECCIONES PARA INFORMES NACIONALES E INTERNACIONALES
(Metar /Speci - TAF)



http://adds.aviationweather.gov/tafs/index.php

http://www.ogimet.com/metars.phtml



PRONÓSTICOS DE AERÓDROMO

Cuando sea necesario, el encabezamiento abreviado puede incluir un cuarto grupo consistente en tres letras para identificar los boletines demorados (RRA), corregidos(CCA) o enmendados (AAA). Los boletines adicionales demorados, corregidos o enmendados deben identificarse con las letras RRB, RRC, etc.; CCB, CCC,etc.;AAB, AAC,etc.



ESTACIONES DESCRIPCION  
MPTO (M) MPTO 261800Z 28007KT 9000 VCSH SCT016CB BKN090 28/26 Q1011 RWY WET TEMPO TS RMK CB E/W PCPN SW-NW/NE=  
MPBO (M) 271100Z 00000KT 9999 SCT020 Q1013=  
MPCH (M) 271100Z 24006KT 9999 FEW030 ///// Q1014=  
MPSA (M) 262300Z 00000KT 2000 TSRA FEW010CB BKN015 22/22 Q1013 RWY WATER PACHES RMK TS NE=  
MPCE (M)  
MPPN (M)261800Z 00000KT 9999 SCT020TCU SCT090 RMK TCU NE=  
MPSM (M) 261300Z 33003KT 9000 FEW018 BKN090 24/23 Q1012 RMK HZ ALQDS=  
MPJE (M) 261800Z 00000KT 1200 -RA VV002 Q1011 RWY WATER PATCHES=  
MPPA (M) 261800Z 36009KT 8000 -RA SCT016 CB SCT080 222/21 Q1013 RWY WET=  
MPMG (M) 271100Z 10002KT 4800 -TSRA FEW005 SCT012CB BKN080 24/24 Q1012 RWY WET RMK TS SW ST N-E/SE-SW CB E/SE-SW (S) 271115Z 03003KT 4000 -TSRA SCT005 BKN010CB 24/24 Q1012 RWY WET RMK TS SW CB E-S-W ST ALQDS  
MPDA (M) 271100Z 00000KT(E) 9999 FEW020CB Q1010 RWY WET RMK CB SW  
MPVR (M) 261300Z 29006KT 9000 SCT018CB BKN090 RMK CB SE/S HZ ALQDS=  
MPWN (M)  
MPOA (M) 261800Z 00000KT 8000 VCSH SCT016 OVC080 Q1012 RMK PCPN N==  
MPMF (M) 261300Z 00000KT 9000 SCT012TCU OVC050 Q1011 RMK BR/TCU ALQDS=  
MPEJ (M) 261800Z 00000KT 9999 SCT020TCU BKN080 26/// Q1012 RMK TCU W=  

 

 

 

CLIMATICAS

MPTO

31-03-2016

PCPN

T° MAX

T° MIN

VIENTO MAX (KT)

HORA

VIENTO PREDOM (KT)

0.0

34.8

20.0

18015KT

1700Z

VRB 05KT

CLIMATICAS

MPMG

31-03-2016

PCPN

T° MAX

T° MIN

VIENTO MAX (KT)

HORA

VIENTO PREDOM (KT)

0.0

34.0

24.2

28011KT

2000Z NNW

 

 
 



























  Noticias AAC
  Directorio
  Contáctenos
  Historia
  Quejas y Sugerencias
  Etica y Transparencia

  Gestión SSP/SMS
  Seguridad Aérea
  Navegación Aérea
  Transporte Aéreo

  Tramites
  Áeronaves de Alquiler

  Meteorología
  I.S.F.P.A
  Notam
  Peligro Aviario
  AVSEC
  UPIA
  Permisos
 




DECLARACIÓN DE PRIVACIDAD